Portada
METAR-TAF:

METAR-TAF

Aeroports :

Yap, Micronèsia

latitud: 09-29N, longitud: 138-05E, altitud: 28 m

Observació

L'informe es va fer fa 47 minuts, a les 10:52 UTC
Vent calma
Temperatura 25°C
Humitat 94%
Pressió 1014 hPa
Visibilitat: 19.3 km
Escasses núvols a una alçada de 1600 ft
Núvols disperses a una alçada de 13000 ft
Cel cobert a una alçada de 30000 ft

METAR: PTYA 181052Z 00000KT 12SM FEW016 SCT130 OVC300 25/24 A2994 RMK SLP140 T02540240

Hora: 21:39 (11:39 UTC)

Pronòstic

L'informe es va fer fa 6 hores i 19 minuts, a les 05:20 UTC
Pronòstic vàlid del 18 a les 06 UTC al 19 a les 06 UTC
Vent 8 kt del Sud-Oest
Visibilitat: 10 km
Escasses núvols a una alçada de 1800 ft
Núvols disperses a una alçada de 5000 ft
Cel ennuvolat a una alçada de 14000 ft
xàfecs en les proximitats

TAF: PTYA 180520Z 1806/1906 23008KT P6SM VCSH FEW018 SCT050 BKN140

Observacions i pronòstics meteorològics de més de 4000 aeroports (METAR i TAF).

Les estacions disponibles són els punts grocs i vermells al mapa.

Posi el ratolí al punt desitjat per veure el nom de l'estació.

Feu clic per veure les observacions i els pronòstics meteorològics.

Per canviar el mapa: feu clic els botons verds amb una creu de color negre per apropar; al botó verd amb un guió per allunyar la imatge; o en les fletxes verdes per a mapes adjacents.


METAR-TAF: